createdAt,value
2017-09-17T00:00:37.263Z,12.96
2017-09-17T00:01:36.946Z,13.01
2017-09-17T00:02:36.927Z,13.04
2017-09-17T00:03:36.921Z,13.00
2017-09-17T00:04:36.919Z,13.01
2017-09-17T00:05:36.892Z,12.95
2017-09-17T00:06:37.271Z,12.93
2017-09-17T00:07:36.873Z,12.93
2017-09-17T00:08:36.865Z,12.93
2017-09-17T00:09:36.845Z,12.93
2017-09-17T00:10:36.834Z,12.90
2017-09-17T00:11:36.827Z,12.95
2017-09-17T00:12:36.942Z,12.93
2017-09-17T00:13:36.808Z,12.92
2017-09-17T00:14:36.784Z,12.86
2017-09-17T00:15:36.774Z,12.85
2017-09-17T00:16:36.761Z,12.92
2017-09-17T00:17:36.752Z,12.85
2017-09-17T00:18:37.040Z,12.86
2017-09-17T00:19:36.719Z,12.90
2017-09-17T00:20:36.708Z,12.92
2017-09-17T00:21:36.702Z,12.92
2017-09-17T00:22:36.679Z,12.93
2017-09-17T00:23:36.667Z,12.83
2017-09-17T00:24:37.031Z,12.93
2017-09-17T00:25:36.641Z,12.90
2017-09-17T00:26:36.630Z,12.87
2017-09-17T00:27:36.617Z,12.83
2017-09-17T00:28:36.606Z,12.79
2017-09-17T00:29:36.594Z,12.78
2017-09-17T00:30:36.911Z,12.65
2017-09-17T00:31:39.404Z,12.75
2017-09-17T00:32:36.542Z,12.72
2017-09-17T00:33:36.545Z,12.71
2017-09-17T00:34:36.539Z,12.75
2017-09-17T00:35:36.508Z,12.71
2017-09-17T00:36:36.731Z,12.71
2017-09-17T00:37:36.490Z,12.70
2017-09-17T00:38:36.471Z,12.71
2017-09-17T00:39:36.458Z,12.74
2017-09-17T00:40:36.446Z,12.77
2017-09-17T00:41:36.453Z,12.67
2017-09-17T00:42:36.802Z,12.59
2017-09-17T00:43:36.409Z,12.57
2017-09-17T00:44:36.417Z,12.54
2017-09-17T00:45:36.403Z,12.49
2017-09-17T00:46:36.382Z,12.54
2017-09-17T00:47:36.376Z,12.46
2017-09-17T00:48:36.557Z,12.41
2017-09-17T00:49:36.344Z,12.50
2017-09-17T00:50:36.319Z,12.45
2017-09-17T00:51:36.309Z,12.41
2017-09-17T00:52:36.313Z,12.42
2017-09-17T00:53:36.281Z,12.45
2017-09-17T00:54:36.567Z,12.47
2017-09-17T00:55:36.253Z,12.46
2017-09-17T00:56:36.243Z,12.56
2017-09-17T00:57:36.232Z,12.41
2017-09-17T00:58:36.230Z,12.46
2017-09-17T00:59:36.207Z,12.38
2017-09-17T01:00:36.445Z,12.46
2017-09-17T01:01:36.188Z,12.45
2017-09-17T01:02:36.183Z,12.38
2017-09-17T01:03:36.153Z,12.42
2017-09-17T01:04:36.142Z,12.47
2017-09-17T01:05:36.415Z,12.50
2017-09-17T01:06:36.134Z,12.41
2017-09-17T01:07:36.115Z,12.41
2017-09-17T01:08:36.093Z,12.41
2017-09-17T01:09:36.083Z,12.46
2017-09-17T01:10:36.074Z,12.46
2017-09-17T01:11:36.498Z,12.53
2017-09-17T01:12:36.049Z,12.49
2017-09-17T01:13:36.046Z,12.54
2017-09-17T01:14:36.023Z,12.50
2017-09-17T01:15:36.011Z,12.52
2017-09-17T01:16:35.998Z,12.54
2017-09-17T01:17:36.313Z,12.39
2017-09-17T01:18:35.971Z,12.41
2017-09-17T01:19:35.958Z,12.41
2017-09-17T01:20:35.955Z,12.42
2017-09-17T01:21:35.931Z,12.52
2017-09-17T01:22:35.909Z,12.47
2017-09-17T01:23:36.247Z,12.41
2017-09-17T01:24:35.883Z,12.50
2017-09-17T01:25:35.884Z,12.42
2017-09-17T01:26:35.852Z,12.37
2017-09-17T01:27:35.859Z,12.38
2017-09-17T01:28:35.833Z,12.42
2017-09-17T01:29:35.932Z,12.41
2017-09-17T01:30:35.816Z,12.45
2017-09-17T01:31:35.806Z,12.39
2017-09-17T01:32:35.791Z,12.47
2017-09-17T01:33:35.766Z,12.42
2017-09-17T01:34:35.790Z,12.41
2017-09-17T01:35:36.090Z,12.39
2017-09-17T01:36:35.732Z,12.37
2017-09-17T01:37:35.715Z,12.37
2017-09-17T01:38:35.703Z,12.29
2017-09-17T01:39:35.687Z,12.35
2017-09-17T01:40:35.675Z,12.38
2017-09-17T01:41:35.956Z,12.35
2017-09-17T01:42:37.402Z,12.35
2017-09-17T01:43:35.638Z,12.37
2017-09-17T01:44:35.638Z,12.31
2017-09-17T01:45:35.614Z,12.37
2017-09-17T01:46:35.607Z,12.32
2017-09-17T01:47:35.900Z,12.16
2017-09-17T01:48:35.590Z,12.20
2017-09-17T01:49:35.574Z,12.39
2017-09-17T01:50:35.563Z,12.32
2017-09-17T01:51:35.548Z,12.32
2017-09-17T01:52:35.524Z,12.21
2017-09-17T01:53:35.825Z,12.34
2017-09-17T01:54:35.498Z,12.31
2017-09-17T01:55:35.489Z,12.24
2017-09-17T01:56:35.471Z,12.24
2017-09-17T01:57:35.466Z,12.21
2017-09-17T01:58:35.484Z,12.31
2017-09-17T01:59:35.825Z,12.28
2017-09-17T02:00:35.427Z,12.28
2017-09-17T02:01:35.412Z,12.31
2017-09-17T02:02:35.390Z,12.28
2017-09-17T02:03:35.391Z,12.34
2017-09-17T02:04:35.377Z,12.19
2017-09-17T02:05:35.710Z,12.24
2017-09-17T02:06:35.359Z,12.35
2017-09-17T02:07:35.332Z,12.37
2017-09-17T02:08:35.310Z,12.27
2017-09-17T02:09:35.298Z,12.31
2017-09-17T02:10:35.293Z,12.31
2017-09-17T02:11:35.490Z,12.37
2017-09-17T02:12:35.276Z,12.39
2017-09-17T02:13:35.255Z,12.27
2017-09-17T02:14:35.233Z,12.34
2017-09-17T02:15:35.225Z,12.34
2017-09-17T02:16:35.216Z,12.41
2017-09-17T02:17:35.628Z,12.31
2017-09-17T02:18:35.186Z,12.34
2017-09-17T02:19:35.172Z,12.29
2017-09-17T02:20:35.181Z,12.24
2017-09-17T02:21:35.154Z,12.21
2017-09-17T02:22:35.144Z,12.32
2017-09-17T02:23:35.333Z,12.32
2017-09-17T02:24:35.103Z,12.23
2017-09-17T02:25:35.100Z,12.31
2017-09-17T02:26:35.091Z,12.31
2017-09-17T02:27:35.071Z,12.29
2017-09-17T02:28:35.058Z,12.32
2017-09-17T02:29:35.768Z,12.20
2017-09-17T02:30:35.033Z,12.24
2017-09-17T02:31:35.021Z,12.35
2017-09-17T02:32:34.996Z,12.38
2017-09-17T02:33:35.003Z,12.32
2017-09-17T02:34:34.986Z,12.21
2017-09-17T02:35:35.184Z,12.27
2017-09-17T02:36:34.963Z,12.20
2017-09-17T02:37:34.936Z,12.31
2017-09-17T02:38:34.929Z,12.23
2017-09-17T02:39:34.926Z,12.32
2017-09-17T02:40:34.907Z,12.27
2017-09-17T02:41:35.207Z,12.23
2017-09-17T02:42:34.883Z,12.32
2017-09-17T02:43:34.876Z,12.24
2017-09-17T02:44:34.862Z,12.23
2017-09-17T02:45:34.830Z,12.23
2017-09-17T02:46:34.831Z,12.23
2017-09-17T02:47:35.242Z,12.24
2017-09-17T02:48:34.797Z,12.21
2017-09-17T02:49:34.790Z,12.29
2017-09-17T02:50:34.773Z,12.23
2017-09-17T02:51:34.774Z,12.20
2017-09-17T02:52:34.742Z,12.19
2017-09-17T02:53:34.970Z,12.23
2017-09-17T02:54:34.715Z,12.23
2017-09-17T02:55:34.717Z,12.16
2017-09-17T02:56:34.698Z,12.19
2017-09-17T02:57:34.678Z,12.14
2017-09-17T02:58:34.671Z,12.12
2017-09-17T02:59:34.953Z,12.10
2017-09-17T03:00:34.644Z,12.17
2017-09-17T03:01:34.618Z,12.09
2017-09-17T03:02:34.627Z,12.13
2017-09-17T03:03:34.603Z,12.14
2017-09-17T03:04:34.629Z,12.12
2017-09-17T03:05:34.565Z,12.10
2017-09-17T03:06:34.783Z,12.07
2017-09-17T03:07:34.542Z,12.10
2017-09-17T03:08:34.548Z,12.07
2017-09-17T03:09:34.524Z,12.10
2017-09-17T03:10:34.511Z,12.10
2017-09-17T03:11:34.490Z,12.14
2017-09-17T03:12:34.768Z,12.14
2017-09-17T03:13:34.469Z,12.09
2017-09-17T03:14:34.459Z,12.14
2017-09-17T03:15:34.451Z,12.13
2017-09-17T03:16:34.443Z,12.05
2017-09-17T03:17:34.418Z,12.14
2017-09-17T03:18:34.476Z,12.05
2017-09-17T03:19:34.412Z,12.05
2017-09-17T03:20:34.383Z,12.10
2017-09-17T03:21:34.369Z,12.09
2017-09-17T03:22:34.355Z,12.13
2017-09-17T03:23:34.332Z,12.07
2017-09-17T03:24:34.769Z,12.09
2017-09-17T03:25:34.306Z,12.09
2017-09-17T03:26:34.306Z,12.05
2017-09-17T03:27:34.282Z,11.99
2017-09-17T03:28:34.275Z,12.02
2017-09-17T03:29:34.252Z,12.01
2017-09-17T03:30:34.465Z,11.91
2017-09-17T03:31:34.232Z,11.88
2017-09-17T03:32:34.210Z,12.01
2017-09-17T03:33:34.200Z,11.88
2017-09-17T03:34:34.186Z,11.94
2017-09-17T03:35:34.186Z,11.91
2017-09-17T03:36:34.467Z,11.95
2017-09-17T03:37:34.146Z,11.96
2017-09-17T03:38:34.143Z,11.88
2017-09-17T03:39:34.132Z,11.85
2017-09-17T03:40:34.105Z,11.88
2017-09-17T03:41:34.103Z,11.88
2017-09-17T03:42:34.130Z,11.86
2017-09-17T03:43:34.079Z,11.88
2017-09-17T03:44:34.064Z,11.94
2017-09-17T03:45:34.090Z,11.86
2017-09-17T03:46:34.045Z,11.85
2017-09-17T03:47:34.019Z,11.80
2017-09-17T03:48:34.006Z,11.85
2017-09-17T03:49:34.004Z,11.99
2017-09-17T03:50:34.336Z,11.90
2017-09-17T03:51:33.958Z,11.90
2017-09-17T03:52:33.967Z,11.90
2017-09-17T03:53:33.942Z,11.95
2017-09-17T03:54:33.937Z,11.95
2017-09-17T03:55:33.908Z,12.02
2017-09-17T03:56:34.159Z,11.94
2017-09-17T03:57:33.878Z,11.85
2017-09-17T03:58:33.881Z,11.98
2017-09-17T03:59:33.854Z,11.96
2017-09-17T04:00:33.855Z,11.91
2017-09-17T04:01:33.831Z,11.91
2017-09-17T04:02:34.170Z,11.94
2017-09-17T04:03:33.803Z,11.91
2017-09-17T04:04:33.794Z,11.94
2017-09-17T04:05:33.793Z,11.94
2017-09-17T04:06:33.764Z,11.94
2017-09-17T04:07:33.751Z,11.85
2017-09-17T04:08:33.975Z,11.90
2017-09-17T04:09:33.732Z,11.96
2017-09-17T04:10:33.713Z,11.91
2017-09-17T04:11:33.707Z,11.91
2017-09-17T04:12:33.690Z,11.80
2017-09-17T04:13:33.678Z,11.86
2017-09-17T04:14:34.028Z,11.88
2017-09-17T04:15:33.660Z,11.85
2017-09-17T04:16:33.850Z,11.88
2017-09-17T04:17:33.623Z,11.80
2017-09-17T04:18:33.615Z,11.78
2017-09-17T04:19:33.593Z,11.83
2017-09-17T04:20:33.603Z,11.78
2017-09-17T04:21:33.574Z,11.75
2017-09-17T04:22:33.546Z,11.82
2017-09-17T04:23:33.550Z,11.62
2017-09-17T04:24:33.550Z,11.73
2017-09-17T04:25:33.808Z,11.67
2017-09-17T04:26:33.512Z,11.70
2017-09-17T04:27:33.485Z,11.70
2017-09-17T04:28:33.474Z,11.73
2017-09-17T04:29:33.459Z,11.67
2017-09-17T04:30:33.453Z,11.70
2017-09-17T04:31:33.750Z,11.67
2017-09-17T04:32:33.432Z,11.67
2017-09-17T04:33:33.408Z,11.72
2017-09-17T04:34:33.388Z,11.67
2017-09-17T04:35:33.378Z,11.69
2017-09-17T04:36:33.375Z,11.65
2017-09-17T04:37:33.750Z,11.65
2017-09-17T04:38:33.354Z,11.65
2017-09-17T04:39:33.334Z,11.73
2017-09-17T04:40:33.318Z,11.67
2017-09-17T04:41:33.305Z,11.69
2017-09-17T04:42:33.294Z,11.67
2017-09-17T04:43:33.304Z,11.62
2017-09-17T04:44:33.263Z,11.67
2017-09-17T04:45:33.234Z,11.62
2017-09-17T04:46:33.233Z,11.69
2017-09-17T04:47:33.238Z,11.62
2017-09-17T04:48:33.660Z,11.60
2017-09-17T04:49:33.202Z,11.58
2017-09-17T04:50:33.175Z,11.62
2017-09-17T04:51:33.176Z,11.69
2017-09-17T04:52:33.145Z,11.65
2017-09-17T04:53:33.133Z,11.61
2017-09-17T04:54:33.506Z,11.64
2017-09-17T04:55:33.115Z,11.55
2017-09-17T04:56:33.091Z,11.60
2017-09-17T04:57:33.074Z,11.60
2017-09-17T04:58:33.084Z,11.61
2017-09-17T04:59:33.052Z,11.60
2017-09-17T05:00:33.432Z,11.52
2017-09-17T05:01:33.033Z,11.52
2017-09-17T05:02:33.020Z,11.47
2017-09-17T05:03:32.994Z,11.52
2017-09-17T05:04:33.004Z,11.49
2017-09-17T05:05:32.966Z,11.52
2017-09-17T05:06:33.311Z,11.51
2017-09-17T05:07:32.954Z,11.60
2017-09-17T05:08:32.926Z,11.51
2017-09-17T05:09:32.929Z,11.54
2017-09-17T05:10:32.917Z,11.52
2017-09-17T05:11:32.901Z,11.49
2017-09-17T05:12:33.171Z,11.55
2017-09-17T05:13:32.864Z,11.51
2017-09-17T05:14:32.847Z,11.47
2017-09-17T05:15:32.849Z,11.47
2017-09-17T05:16:32.832Z,11.47
2017-09-17T05:17:32.815Z,11.46
2017-09-17T05:18:33.216Z,11.46
2017-09-17T05:19:32.777Z,11.43
2017-09-17T05:20:32.769Z,11.47
2017-09-17T05:21:32.751Z,11.47
2017-09-17T05:22:32.750Z,11.51
2017-09-17T05:23:32.735Z,11.44
2017-09-17T05:24:33.113Z,11.44
2017-09-17T05:25:32.710Z,11.49
2017-09-17T05:26:32.681Z,11.44
2017-09-17T05:27:32.690Z,11.44
2017-09-17T05:28:32.658Z,11.46
2017-09-17T05:29:32.642Z,11.54
2017-09-17T05:30:32.969Z,11.46
2017-09-17T05:31:32.639Z,11.52
2017-09-17T05:32:32.601Z,11.46
2017-09-17T05:33:32.586Z,11.57
2017-09-17T05:34:32.589Z,11.55
2017-09-17T05:35:32.559Z,11.58
2017-09-17T05:36:33.015Z,11.54
2017-09-17T05:37:32.540Z,11.58
2017-09-17T05:38:32.522Z,11.54
2017-09-17T05:39:32.516Z,11.57
2017-09-17T05:40:32.505Z,11.54
2017-09-17T05:41:32.478Z,11.51
2017-09-17T05:42:32.798Z,11.52
2017-09-17T05:43:32.448Z,11.55
2017-09-17T05:44:32.438Z,11.57
2017-09-17T05:45:32.435Z,11.55
2017-09-17T05:46:32.423Z,11.57
2017-09-17T05:47:32.412Z,11.60
2017-09-17T05:48:32.434Z,11.60
2017-09-17T05:49:32.375Z,11.58
2017-09-17T05:50:32.361Z,11.61
2017-09-17T05:51:32.347Z,11.52
2017-09-17T05:52:32.330Z,11.60
2017-09-17T05:53:32.733Z,11.60
2017-09-17T05:54:32.314Z,11.57
2017-09-17T05:55:32.303Z,11.55
2017-09-17T05:56:32.276Z,11.69
2017-09-17T05:57:32.260Z,11.55
2017-09-17T05:58:32.262Z,11.58
2017-09-17T05:59:32.565Z,11.60
2017-09-17T06:00:32.231Z,11.73
2017-09-17T06:01:32.217Z,11.65
2017-09-17T06:02:32.210Z,11.60
2017-09-17T06:03:32.206Z,11.64
2017-09-17T06:04:32.169Z,11.62
2017-09-17T06:05:32.598Z,11.58
2017-09-17T06:06:32.149Z,11.60
2017-09-17T06:07:32.151Z,11.64
2017-09-17T06:08:32.126Z,11.60
2017-09-17T06:09:32.114Z,11.65
2017-09-17T06:10:32.087Z,11.62
2017-09-17T06:11:32.462Z,11.62
2017-09-17T06:12:32.077Z,11.69
2017-09-17T06:13:32.046Z,11.72
2017-09-17T06:14:32.045Z,11.67
2017-09-17T06:15:32.023Z,11.69
2017-09-17T06:16:32.018Z,11.65
2017-09-17T06:17:32.374Z,11.67
2017-09-17T06:18:31.991Z,11.70
2017-09-17T06:19:31.982Z,11.78
2017-09-17T06:20:31.952Z,11.70
2017-09-17T06:21:31.952Z,11.64
2017-09-17T06:22:31.944Z,11.73
2017-09-17T06:23:32.016Z,11.70
2017-09-17T06:24:31.904Z,11.70
2017-09-17T06:25:31.903Z,11.70
2017-09-17T06:26:31.886Z,11.72
2017-09-17T06:27:31.867Z,11.73
2017-09-17T06:28:31.860Z,11.70
2017-09-17T06:29:32.046Z,11.64
2017-09-17T06:30:31.819Z,11.64
2017-09-17T06:31:31.802Z,11.67
2017-09-17T06:32:31.798Z,11.65
2017-09-17T06:33:31.797Z,11.67
2017-09-17T06:34:31.778Z,11.75
2017-09-17T06:35:32.048Z,11.72
2017-09-17T06:36:31.741Z,11.70
2017-09-17T06:37:31.726Z,11.72
2017-09-17T06:38:31.736Z,11.70
2017-09-17T06:39:31.711Z,11.72
2017-09-17T06:40:31.708Z,11.75
2017-09-17T06:41:32.157Z,11.69
2017-09-17T06:42:31.677Z,11.79
2017-09-17T06:43:31.659Z,11.80
2017-09-17T06:44:31.652Z,11.76
2017-09-17T06:45:31.627Z,11.73
2017-09-17T06:46:31.873Z,11.78
2017-09-17T06:47:31.895Z,11.80
2017-09-17T06:48:31.591Z,11.78
2017-09-17T06:49:31.567Z,11.76
2017-09-17T06:50:31.553Z,11.80
2017-09-17T06:51:31.538Z,11.85
2017-09-17T06:52:31.576Z,11.79
2017-09-17T06:53:31.551Z,11.82
2017-09-17T06:54:31.513Z,11.88
2017-09-17T06:55:31.804Z,11.85
2017-09-17T06:56:31.480Z,11.82
2017-09-17T06:57:31.470Z,11.82
2017-09-17T06:58:31.457Z,11.90
2017-09-17T06:59:31.445Z,11.90
2017-09-17T07:00:31.419Z,11.94
2017-09-17T07:01:31.448Z,11.86
2017-09-17T07:02:31.390Z,11.88
2017-09-17T07:03:31.384Z,11.85
2017-09-17T07:04:31.380Z,11.88
2017-09-17T07:05:31.389Z,11.90
2017-09-17T07:06:31.346Z,11.82
2017-09-17T07:07:31.330Z,11.88
2017-09-17T07:08:31.337Z,11.88
2017-09-17T07:09:31.305Z,11.88
2017-09-17T07:10:31.317Z,11.82
2017-09-17T07:11:31.297Z,11.83
2017-09-17T07:12:31.280Z,11.95
2017-09-17T07:13:31.261Z,11.79
2017-09-17T07:14:31.254Z,11.82
2017-09-17T07:15:31.624Z,11.85
2017-09-17T07:16:31.208Z,11.90
2017-09-17T07:17:31.213Z,11.85
2017-09-17T07:18:31.188Z,11.83
2017-09-17T07:19:31.182Z,11.88
2017-09-17T07:20:31.154Z,11.85
2017-09-17T07:21:31.474Z,11.80
2017-09-17T07:22:31.142Z,11.86
2017-09-17T07:23:31.134Z,11.88
2017-09-17T07:24:31.119Z,11.79
2017-09-17T07:25:31.096Z,11.86
2017-09-17T07:26:31.101Z,11.85
2017-09-17T07:27:31.463Z,11.90
2017-09-17T07:28:31.077Z,11.90
2017-09-17T07:29:31.050Z,11.83
2017-09-17T07:30:31.034Z,11.83
2017-09-17T07:31:31.022Z,11.83
2017-09-17T07:32:31.013Z,11.85
2017-09-17T07:33:31.021Z,11.88
2017-09-17T07:34:30.988Z,11.88
2017-09-17T07:35:30.960Z,11.98
2017-09-17T07:36:30.994Z,11.91
2017-09-17T07:37:30.944Z,11.98
2017-09-17T07:38:30.938Z,12.10
2017-09-17T07:39:30.919Z,12.04
2017-09-17T07:40:30.910Z,12.07
2017-09-17T07:41:31.025Z,12.07
2017-09-17T07:42:30.874Z,12.07
2017-09-17T07:43:30.871Z,12.07
2017-09-17T07:44:30.854Z,12.10
2017-09-17T07:45:30.841Z,12.12
2017-09-17T07:46:30.821Z,12.13
2017-09-17T07:47:30.845Z,12.16
2017-09-17T07:48:30.813Z,12.14
2017-09-17T07:49:30.787Z,12.21
2017-09-17T07:50:30.772Z,12.27
2017-09-17T07:51:30.783Z,12.17
2017-09-17T07:52:31.047Z,12.17
2017-09-17T07:53:30.742Z,12.27
2017-09-17T07:54:30.724Z,12.20
2017-09-17T07:55:30.711Z,12.20
2017-09-17T07:56:30.697Z,12.20
2017-09-17T07:57:30.688Z,12.29
2017-09-17T07:58:31.121Z,12.28
2017-09-17T07:59:30.652Z,12.34
2017-09-17T08:00:30.637Z,12.21
2017-09-17T08:01:30.631Z,12.38
2017-09-17T08:02:30.607Z,12.35
2017-09-17T08:03:30.595Z,12.41
2017-09-17T08:04:30.988Z,12.41
2017-09-17T08:05:30.581Z,12.42
2017-09-17T08:06:30.557Z,12.42
2017-09-17T08:07:30.558Z,12.46
2017-09-17T08:08:30.534Z,12.45
2017-09-17T08:09:30.521Z,12.39
2017-09-17T08:10:30.815Z,12.42
2017-09-17T08:11:30.507Z,12.50
2017-09-17T08:12:30.591Z,12.39
2017-09-17T08:13:30.559Z,12.54
2017-09-17T08:14:30.564Z,12.41
2017-09-17T08:15:30.573Z,12.52
2017-09-17T08:16:30.652Z,12.53
2017-09-17T08:17:30.492Z,12.42
2017-09-17T08:18:30.585Z,12.45
2017-09-17T08:19:30.485Z,12.45
2017-09-17T08:20:30.553Z,12.45
2017-09-17T08:21:30.797Z,12.52
2017-09-17T08:22:30.555Z,12.59
2017-09-17T08:23:30.565Z,12.54
2017-09-17T08:24:30.632Z,12.41
2017-09-17T08:25:30.312Z,12.47
2017-09-17T08:26:30.318Z,12.47
2017-09-17T08:27:30.700Z,12.38
2017-09-17T08:28:30.716Z,12.39
2017-09-17T08:29:30.515Z,12.42
2017-09-17T08:30:30.254Z,12.45
2017-09-17T08:31:30.381Z,12.39
2017-09-17T08:32:30.388Z,12.46
2017-09-17T08:33:30.384Z,12.45
2017-09-17T08:37:11.412Z,12.46
2017-09-17T08:38:11.017Z,12.49
2017-09-17T08:39:10.961Z,12.47
2017-09-17T08:40:29.857Z,12.39
2017-09-17T08:41:11.512Z,12.41
2017-09-17T08:42:10.855Z,12.24
2017-09-17T08:43:12.594Z,12.38
2017-09-17T08:52:03.365Z,12.53
2017-09-17T08:57:59.122Z,12.57
2017-09-17T08:58:58.668Z,12.54
2017-09-17T08:59:58.669Z,12.57
2017-09-17T09:00:58.641Z,12.59
2017-09-17T09:01:58.614Z,12.59
2017-09-17T09:02:58.616Z,12.62
2017-09-17T09:03:58.615Z,12.72
2017-09-17T09:04:58.577Z,12.64
2017-09-17T09:05:58.559Z,12.72
2017-09-17T09:06:58.559Z,12.72
2017-09-17T09:07:58.543Z,12.77
2017-09-17T09:08:58.897Z,12.77
2017-09-17T09:09:58.511Z,12.74
2017-09-17T09:10:58.535Z,12.82
2017-09-17T09:11:58.493Z,12.85
2017-09-17T09:12:58.486Z,12.82
2017-09-17T09:13:58.467Z,12.93
2017-09-17T09:14:58.845Z,12.93
2017-09-17T09:15:58.437Z,12.96
2017-09-17T09:16:58.423Z,12.97
2017-09-17T09:18:03.021Z,12.96
2017-09-17T09:18:58.422Z,13.04
2017-09-17T09:20:52.445Z,13.00
2017-09-17T09:20:58.385Z,13.12
2017-09-17T09:21:58.385Z,13.10
2017-09-17T09:22:58.366Z,13.10
2017-09-17T09:23:58.353Z,13.10
2017-09-17T09:24:58.334Z,13.17
2017-09-17T09:25:58.785Z,13.26
2017-09-17T09:27:02.855Z,13.20
2017-09-17T09:28:08.438Z,13.28
2017-09-17T09:28:58.354Z,13.22
2017-09-17T09:29:58.309Z,13.25
2017-09-17T09:30:58.258Z,13.19
2017-09-17T09:31:58.568Z,13.28
2017-09-17T09:32:58.243Z,13.28
2017-09-17T09:33:58.235Z,13.29
2017-09-17T09:34:58.201Z,13.39
2017-09-17T09:35:58.198Z,13.38
2017-09-17T09:36:58.172Z,13.39
2017-09-17T09:37:58.611Z,13.41
2017-09-17T09:38:58.150Z,13.39
2017-09-17T09:39:58.137Z,13.41
2017-09-17T09:40:58.145Z,13.45
2017-09-17T09:41:58.116Z,13.51
2017-09-17T09:42:58.118Z,13.46
2017-09-17T09:43:58.411Z,13.52
2017-09-17T09:44:58.359Z,13.57
2017-09-17T09:45:58.071Z,13.49
2017-09-17T09:46:58.057Z,13.49
2017-09-17T09:47:58.054Z,13.49
2017-09-17T09:48:58.037Z,13.54
2017-09-17T09:49:58.071Z,13.49
2017-09-17T09:50:58.018Z,13.62
2017-09-17T09:51:58.008Z,13.64
2017-09-17T09:52:57.990Z,13.57
2017-09-17T09:53:57.986Z,13.64
2017-09-17T09:54:58.296Z,13.59
2017-09-17T09:55:57.956Z,13.63
2017-09-17T09:56:57.932Z,13.69
2017-09-17T09:57:57.928Z,13.71
2017-09-17T09:58:57.922Z,13.67
2017-09-17T09:59:57.920Z,13.69
2017-09-17T10:00:57.925Z,13.63
2017-09-17T10:01:57.915Z,13.67
2017-09-17T10:02:57.864Z,13.75
2017-09-17T10:03:57.867Z,13.73
2017-09-17T10:04:57.867Z,13.84
2017-09-17T10:05:57.845Z,13.79
2017-09-17T10:06:57.829Z,13.87
2017-09-17T10:07:57.821Z,13.91
2017-09-17T10:08:57.807Z,13.97
2017-09-17T10:09:58.111Z,13.91
2017-09-17T10:10:57.771Z,13.95
2017-09-17T10:11:57.770Z,13.97
2017-09-17T10:12:57.759Z,13.99
2017-09-17T10:13:57.757Z,14.00
2017-09-17T10:14:57.736Z,14.10
2017-09-17T10:15:58.107Z,14.17
2017-09-17T10:16:57.713Z,14.20
2017-09-17T10:17:57.711Z,14.22
2017-09-17T10:18:57.691Z,14.21
2017-09-17T10:19:57.668Z,14.24
2017-09-17T10:20:57.657Z,14.28
2017-09-17T10:21:57.981Z,14.27
2017-09-17T10:22:57.638Z,14.36
2017-09-17T10:23:57.653Z,14.33
2017-09-17T10:24:57.615Z,14.50
2017-09-17T10:25:57.623Z,14.36
2017-09-17T10:26:58.211Z,14.42
2017-09-17T10:28:00.518Z,14.43
2017-09-17T10:28:57.685Z,14.51
2017-09-17T10:29:57.556Z,14.55
2017-09-17T10:30:57.553Z,14.51
2017-09-17T10:31:57.678Z,14.61
2017-09-17T10:32:57.546Z,14.61
2017-09-17T10:33:57.948Z,14.58
2017-09-17T10:34:57.514Z,14.58
2017-09-17T10:35:57.545Z,14.64
2017-09-17T10:36:57.483Z,14.54
2017-09-17T10:37:57.468Z,14.60
2017-09-17T10:38:57.455Z,14.58
2017-09-17T10:39:57.485Z,14.65
2017-09-17T10:40:57.433Z,14.70
2017-09-17T10:41:57.457Z,14.70
2017-09-17T10:42:57.423Z,14.73
2017-09-17T10:43:57.397Z,14.84
2017-09-17T10:44:57.415Z,14.81
2017-09-17T10:45:57.381Z,14.88
2017-09-17T10:46:57.389Z,14.83
2017-09-17T10:47:57.357Z,14.86
2017-09-17T10:48:57.344Z,14.83
2017-09-17T10:49:57.697Z,14.88
2017-09-17T10:50:57.329Z,14.86
2017-09-17T10:51:57.330Z,14.81
2017-09-17T10:52:57.300Z,14.92
2017-09-17T10:53:57.297Z,14.91
2017-09-17T10:54:57.297Z,14.98
2017-09-17T10:55:57.602Z,15.06
2017-09-17T10:56:57.262Z,14.95
2017-09-17T10:57:57.253Z,14.95
2017-09-17T10:58:57.240Z,14.92
2017-09-17T10:59:57.238Z,14.83
2017-09-17T11:00:57.242Z,14.84
2017-09-17T11:01:57.524Z,14.86
2017-09-17T11:02:57.195Z,14.86
2017-09-17T11:03:57.204Z,14.89
2017-09-17T11:04:57.176Z,14.88
2017-09-17T11:05:57.168Z,14.86
2017-09-17T11:06:57.152Z,14.91
2017-09-17T11:07:57.491Z,14.86
2017-09-17T11:08:57.136Z,14.84
2017-09-17T11:09:57.121Z,14.89
2017-09-17T11:10:57.120Z,14.88
2017-09-17T11:11:57.111Z,15.02
2017-09-17T11:12:57.125Z,14.94
2017-09-17T11:13:57.551Z,14.98
2017-09-17T11:14:57.068Z,14.95
2017-09-17T11:15:57.052Z,15.02
2017-09-17T11:16:57.047Z,14.98
2017-09-17T11:17:57.037Z,15.03
2017-09-17T11:18:57.025Z,15.11
2017-09-17T11:19:57.466Z,15.11
2017-09-17T11:20:57.015Z,15.23
2017-09-17T11:21:56.991Z,15.19
2017-09-17T11:22:56.994Z,15.17
2017-09-17T11:23:56.995Z,15.25
2017-09-17T11:24:56.986Z,15.25
2017-09-17T11:25:57.353Z,15.21
2017-09-17T11:26:56.941Z,15.19
2017-09-17T11:27:56.943Z,15.28
2017-09-17T11:28:56.926Z,15.29
2017-09-17T11:29:56.918Z,15.31
2017-09-17T11:30:56.916Z,15.29
2017-09-17T11:31:57.166Z,15.38
2017-09-17T11:32:56.884Z,15.35
2017-09-17T11:33:56.866Z,15.36
2017-09-17T11:34:56.863Z,15.44
2017-09-17T11:35:56.856Z,15.49
2017-09-17T11:36:56.836Z,15.51
2017-09-17T11:37:57.143Z,15.53
2017-09-17T11:38:56.825Z,15.59
2017-09-17T11:39:56.830Z,15.64
2017-09-17T11:40:56.800Z,15.60
2017-09-17T11:41:56.796Z,15.59
2017-09-17T11:42:56.785Z,15.64
2017-09-17T11:43:57.154Z,15.53
2017-09-17T11:44:56.753Z,15.65
2017-09-17T11:45:56.743Z,15.68
2017-09-17T11:46:56.732Z,15.62
2017-09-17T11:47:56.751Z,15.64
2017-09-17T11:48:56.713Z,15.65
2017-09-17T11:49:56.747Z,15.68
2017-09-17T11:50:56.693Z,15.65
2017-09-17T11:51:56.688Z,15.65
2017-09-17T11:52:56.673Z,15.67
2017-09-17T11:53:56.680Z,15.64
2017-09-17T11:54:57.055Z,15.65
2017-09-17T11:55:56.656Z,15.68
2017-09-17T11:56:56.632Z,15.67
2017-09-17T11:57:56.637Z,15.67
2017-09-17T11:58:56.615Z,15.68
2017-09-17T11:59:56.611Z,15.71
2017-09-17T12:00:56.631Z,15.75
2017-09-17T12:01:56.594Z,15.62
2017-09-17T12:02:56.572Z,15.78
2017-09-17T12:03:56.576Z,15.71
2017-09-17T12:04:56.557Z,15.67
2017-09-17T12:05:56.899Z,15.71
2017-09-17T12:06:56.539Z,15.72
2017-09-17T12:07:56.524Z,15.82
2017-09-17T12:08:56.509Z,15.82
2017-09-17T12:09:56.511Z,15.86
2017-09-17T12:10:56.506Z,15.82
2017-09-17T12:11:56.515Z,15.75
2017-09-17T12:12:56.495Z,15.83
2017-09-17T12:13:56.462Z,15.82
2017-09-17T12:14:56.487Z,15.80
2017-09-17T12:15:56.699Z,15.82
2017-09-17T12:16:56.446Z,15.78
2017-09-17T12:17:56.427Z,15.84
2017-09-17T12:18:56.429Z,15.75
2017-09-17T12:19:56.407Z,15.84
2017-09-17T12:20:56.391Z,15.86
2017-09-17T12:21:56.416Z,15.80
2017-09-17T12:22:56.376Z,15.83
2017-09-17T12:23:56.372Z,15.80
2017-09-17T12:24:56.353Z,15.84
2017-09-17T12:25:56.359Z,15.89
2017-09-17T12:26:56.380Z,15.90
2017-09-17T12:27:56.343Z,15.87
2017-09-17T12:28:56.329Z,15.92
2017-09-17T12:29:56.321Z,15.97
2017-09-17T12:30:56.305Z,15.96
2017-09-17T12:31:56.320Z,16.00
2017-09-17T12:32:56.290Z,16.02
2017-09-17T12:33:56.286Z,16.01
2017-09-17T12:34:56.272Z,15.97
2017-09-17T12:35:56.254Z,16.04
2017-09-17T12:36:56.265Z,16.02
2017-09-17T12:37:56.224Z,16.09
2017-09-17T12:38:56.233Z,16.14
2017-09-17T12:39:56.216Z,16.15
2017-09-17T12:40:56.205Z,16.20
2017-09-17T12:41:56.401Z,16.14
2017-09-17T12:42:56.183Z,16.17
2017-09-17T12:43:56.175Z,16.15
2017-09-17T12:44:56.178Z,16.20
2017-09-17T12:45:56.164Z,16.20
2017-09-17T12:46:56.142Z,16.27
2017-09-17T12:47:56.460Z,16.23
2017-09-17T12:48:56.126Z,16.24
2017-09-17T12:49:56.121Z,16.30
2017-09-17T12:50:56.098Z,16.34
2017-09-17T12:51:56.104Z,16.33
2017-09-17T12:52:56.094Z,16.34
2017-09-17T12:53:56.122Z,16.31
2017-09-17T12:54:56.080Z,16.35
2017-09-17T12:55:56.057Z,16.42
2017-09-17T12:56:56.040Z,16.46
2017-09-17T12:57:56.382Z,16.41
2017-09-17T12:58:56.024Z,16.28
2017-09-17T12:59:56.027Z,16.30
2017-09-17T13:00:56.008Z,16.30
2017-09-17T13:01:56.008Z,16.33
2017-09-17T13:02:55.990Z,16.33
2017-09-17T13:03:56.016Z,16.28
2017-09-17T13:04:55.982Z,16.39
2017-09-17T13:05:55.959Z,16.30
2017-09-17T13:06:55.963Z,16.33
2017-09-17T13:07:55.951Z,16.31